KMUO

Mountain Home AFB Airport

Mountain Home, Idaho, USA
METAR KMUO 230758Z AUTO 07008KT 10SM OVC110 14/14 A2984 RMK AO2 SLP087 T01390139 $
Observed Flight Rules
May-23 @ 07:58 UTC (44 minutes ago) Visual Flight Rules
Wind Visibility Clouds
70° at 8 knots 10 miles
  • Overcast at 11,000' AGL
Temperatures Readings
Current 14°C / 57°F
Dewpoint 14°C / 57°F
Humidity 100%
Altimeter 29.84" Hg
Pressure 1008.7 hPa
Elevation 913
METAR KMUO 230758Z AUTO 07008KT 10SM OVC110 14/14 A2984 RMK AO2 SLP087 T01390139 $
Observed Flight Rules
May-23 @ 07:58 UTC
(44 minutes ago)
VFR
Wind Visibility
70° at 8 knots 10 miles
Clouds
  • Overcast at 11,000' AGL
Temperature Dewpoint
14°C / 57°F 14°C / 57°F
Humidity Altimeter Pressure
100% 29.84" Hg 1008.7 hPa